createdAt,value
2022-10-01T00:00:36.856Z,3.80
2022-10-01T00:01:37.457Z,7.40
2022-10-01T00:02:36.874Z,6.10
2022-10-01T00:03:36.825Z,4.90
2022-10-01T00:04:36.805Z,4.20
2022-10-01T00:05:36.805Z,3.70
2022-10-01T00:06:36.774Z,4.10
2022-10-01T00:07:37.135Z,5.60
2022-10-01T00:08:36.765Z,3.50
2022-10-01T00:09:36.756Z,4.10
2022-10-01T00:10:36.744Z,4.90
2022-10-01T00:11:37.549Z,4.60
2022-10-01T00:12:36.713Z,5.40
2022-10-01T00:13:36.707Z,4.80
2022-10-01T00:14:36.706Z,3.20
2022-10-01T00:15:36.704Z,3.30
2022-10-01T00:16:36.765Z,4.80
2022-10-01T00:17:36.693Z,5.70
2022-10-01T00:18:36.644Z,4.80
2022-10-01T00:19:36.648Z,3.60
2022-10-01T00:20:36.614Z,3.00
2022-10-01T00:21:36.928Z,5.50
2022-10-01T00:22:36.604Z,4.50
2022-10-01T00:23:36.596Z,4.90
2022-10-01T00:24:36.574Z,3.50
2022-10-01T00:25:36.602Z,4.00
2022-10-01T00:26:36.553Z,5.90
2022-10-01T00:27:36.544Z,4.70
2022-10-01T00:28:36.523Z,4.30
2022-10-01T00:29:36.542Z,6.00
2022-10-01T00:30:40.263Z,3.60
2022-10-01T00:31:37.851Z,4.80
2022-10-01T00:32:36.496Z,5.50
2022-10-01T00:33:36.494Z,5.50
2022-10-01T00:34:37.253Z,3.20
2022-10-01T00:35:36.503Z,3.30
2022-10-01T00:36:36.443Z,3.60
2022-10-01T00:37:36.436Z,2.80
2022-10-01T00:38:36.535Z,3.50
2022-10-01T00:39:36.431Z,4.60
2022-10-01T00:40:36.402Z,3.30
2022-10-01T00:41:36.758Z,3.40
2022-10-01T00:42:36.364Z,4.10
2022-10-01T00:43:36.373Z,6.10
2022-10-01T00:44:36.344Z,3.90
2022-10-01T00:45:36.424Z,3.50
2022-10-01T00:46:36.322Z,4.80
2022-10-01T00:47:36.331Z,4.70
2022-10-01T00:48:36.333Z,3.70
2022-10-01T00:49:36.302Z,4.50
2022-10-01T00:50:36.273Z,3.80
2022-10-01T00:51:36.617Z,4.20
2022-10-01T00:52:36.410Z,4.60
2022-10-01T00:53:36.263Z,5.10
2022-10-01T00:54:36.233Z,3.60
2022-10-01T00:55:36.241Z,3.40
2022-10-01T00:56:36.222Z,4.70
2022-10-01T00:57:36.213Z,3.00
2022-10-01T00:58:36.182Z,3.20
2022-10-01T00:59:36.202Z,3.80
2022-10-01T01:00:36.162Z,4.70
2022-10-01T01:01:36.603Z,4.20
2022-10-01T01:02:36.207Z,2.90
2022-10-01T01:03:36.141Z,4.00
2022-10-01T01:04:36.122Z,4.30
2022-10-01T01:05:36.121Z,6.60
2022-10-01T01:06:36.102Z,4.40
2022-10-01T01:07:36.101Z,3.00
2022-10-01T01:08:36.082Z,4.10
2022-10-01T01:09:36.079Z,3.80
2022-10-01T01:10:36.062Z,3.70
2022-10-01T01:11:36.456Z,3.90
2022-10-01T01:12:36.806Z,4.10
2022-10-01T01:13:36.041Z,2.70
2022-10-01T01:14:36.023Z,4.00
2022-10-01T01:15:36.039Z,3.00
2022-10-01T01:16:35.982Z,2.80
2022-10-01T01:17:35.993Z,4.00
2022-10-01T01:18:35.961Z,2.50
2022-10-01T01:19:36.002Z,4.60
2022-10-01T01:20:35.943Z,3.10
2022-10-01T01:21:36.265Z,3.10
2022-10-01T01:22:35.911Z,3.30
2022-10-01T01:23:35.927Z,2.90
2022-10-01T01:24:35.900Z,3.70
2022-10-01T01:25:35.909Z,3.90
2022-10-01T01:26:35.871Z,4.40
2022-10-01T01:27:35.878Z,3.90
2022-10-01T01:28:35.852Z,2.70
2022-10-01T01:29:35.850Z,2.90
2022-10-01T01:30:35.831Z,3.40
2022-10-01T01:31:36.226Z,3.70
2022-10-01T01:32:35.811Z,3.40
2022-10-01T01:33:35.809Z,5.00
2022-10-01T01:34:35.782Z,2.30
2022-10-01T01:35:35.800Z,3.40
2022-10-01T01:36:35.770Z,2.70
2022-10-01T01:37:35.759Z,4.40
2022-10-01T01:38:35.740Z,3.30
2022-10-01T01:39:35.740Z,3.10
2022-10-01T01:40:35.720Z,2.60
2022-10-01T01:41:36.096Z,5.20
2022-10-01T01:42:35.731Z,3.00
2022-10-01T01:43:35.699Z,3.90
2022-10-01T01:44:35.670Z,3.30
2022-10-01T01:45:35.713Z,5.00
2022-10-01T01:46:35.663Z,4.10
2022-10-01T01:47:35.650Z,3.40
2022-10-01T01:48:35.641Z,3.40
2022-10-01T01:49:35.629Z,2.10
2022-10-01T01:50:35.602Z,4.10
2022-10-01T01:51:35.909Z,2.30
2022-10-01T01:52:35.579Z,2.50
2022-10-01T01:53:36.320Z,3.70
2022-10-01T01:54:35.600Z,2.20
2022-10-01T01:55:35.557Z,3.20
2022-10-01T01:56:35.533Z,2.40
2022-10-01T01:57:35.540Z,2.50
2022-10-01T01:58:35.520Z,3.30
2022-10-01T01:59:35.530Z,2.20
2022-10-01T02:00:35.489Z,3.00
2022-10-01T02:01:35.967Z,3.10
2022-10-01T02:02:35.516Z,4.00
2022-10-01T02:03:35.485Z,2.30
2022-10-01T02:04:35.440Z,2.60
2022-10-01T02:05:35.449Z,3.40
2022-10-01T02:06:35.420Z,4.50
2022-10-01T02:07:35.426Z,6.00
2022-10-01T02:08:35.399Z,3.10
2022-10-01T02:09:35.410Z,5.10
2022-10-01T02:10:35.381Z,3.40
2022-10-01T02:11:35.645Z,5.10
2022-10-01T02:12:35.349Z,2.30
2022-10-01T02:13:35.366Z,4.00
2022-10-01T02:14:35.340Z,3.10
2022-10-01T02:15:35.575Z,2.60
2022-10-01T02:16:35.309Z,4.20
2022-10-01T02:17:35.300Z,3.30
2022-10-01T02:18:35.289Z,2.20
2022-10-01T02:19:35.278Z,2.70
2022-10-01T02:20:35.269Z,3.10
2022-10-01T02:21:35.689Z,5.40
2022-10-01T02:22:35.268Z,3.20
2022-10-01T02:23:35.238Z,3.60
2022-10-01T02:24:35.208Z,3.70
2022-10-01T02:25:35.229Z,4.50
2022-10-01T02:26:35.214Z,6.30
2022-10-01T02:27:35.208Z,5.20
2022-10-01T02:28:35.159Z,7.10
2022-10-01T02:29:35.167Z,3.70
2022-10-01T02:30:35.139Z,4.30
2022-10-01T02:31:35.500Z,2.40
2022-10-01T02:32:35.128Z,5.80
2022-10-01T02:33:35.128Z,3.80
2022-10-01T02:34:35.968Z,4.00
2022-10-01T02:35:35.098Z,3.00
2022-10-01T02:36:35.077Z,3.70
2022-10-01T02:37:35.078Z,4.50
2022-10-01T02:38:35.058Z,4.60
2022-10-01T02:39:35.058Z,5.30
2022-10-01T02:40:35.027Z,4.30
2022-10-01T02:41:35.401Z,4.10
2022-10-01T02:42:35.008Z,3.80
2022-10-01T02:43:37.335Z,3.90
2022-10-01T02:44:35.028Z,2.80
2022-10-01T02:45:35.202Z,5.10
2022-10-01T02:46:34.969Z,4.50
2022-10-01T02:47:34.957Z,4.60
2022-10-01T02:48:34.947Z,4.00
2022-10-01T02:49:34.964Z,3.40
2022-10-01T02:50:34.927Z,3.40
2022-10-01T02:51:35.286Z,2.70
2022-10-01T02:52:34.930Z,4.20
2022-10-01T02:53:34.965Z,4.70
2022-10-01T02:54:35.197Z,3.00
2022-10-01T02:55:35.626Z,3.70
2022-10-01T02:56:34.869Z,3.50
2022-10-01T02:57:34.878Z,3.00
2022-10-01T02:58:34.828Z,2.70
2022-10-01T02:59:34.851Z,5.50
2022-10-01T03:00:34.807Z,2.90
2022-10-01T03:01:35.110Z,3.50
2022-10-01T03:02:34.821Z,6.20
2022-10-01T03:03:34.794Z,4.30
2022-10-01T03:04:34.777Z,3.50
2022-10-01T03:05:34.768Z,4.20
2022-10-01T03:06:34.737Z,4.40
2022-10-01T03:07:34.738Z,4.00
2022-10-01T03:08:34.716Z,3.70
2022-10-01T03:09:34.720Z,3.20
2022-10-01T03:10:35.201Z,3.00
2022-10-01T03:11:35.049Z,3.00
2022-10-01T03:12:34.666Z,3.50
2022-10-01T03:13:34.675Z,3.30
2022-10-01T03:14:34.645Z,3.30
2022-10-01T03:15:34.731Z,4.10
2022-10-01T03:16:35.236Z,2.60
2022-10-01T03:17:34.627Z,2.90
2022-10-01T03:18:34.615Z,3.10
2022-10-01T03:19:34.607Z,4.70
2022-10-01T03:20:34.594Z,3.20
2022-10-01T03:21:34.994Z,5.00
2022-10-01T03:22:34.556Z,4.70
2022-10-01T03:23:34.585Z,4.60
2022-10-01T03:24:34.536Z,4.80
2022-10-01T03:25:34.536Z,3.30
2022-10-01T03:26:34.507Z,4.80
2022-10-01T03:27:34.516Z,3.60
2022-10-01T03:28:34.495Z,3.30
2022-10-01T03:29:34.495Z,2.70
2022-10-01T03:30:34.477Z,2.40
2022-10-01T03:31:34.852Z,3.10
2022-10-01T03:32:34.445Z,2.30
2022-10-01T03:33:34.455Z,3.60
2022-10-01T03:34:34.433Z,4.00
2022-10-01T03:35:35.125Z,3.60
2022-10-01T03:36:34.855Z,4.50
2022-10-01T03:37:35.308Z,2.70
2022-10-01T03:38:34.383Z,3.60
2022-10-01T03:39:34.416Z,3.00
2022-10-01T03:40:34.356Z,3.40
2022-10-01T03:41:34.709Z,4.70
2022-10-01T03:42:34.335Z,3.90
2022-10-01T03:43:34.334Z,3.70
2022-10-01T03:44:34.305Z,3.80
2022-10-01T03:45:34.355Z,3.60
2022-10-01T03:46:34.294Z,4.10
2022-10-01T03:47:34.294Z,2.80
2022-10-01T03:48:34.325Z,3.40
2022-10-01T03:49:34.267Z,3.90
2022-10-01T03:50:34.256Z,4.20
2022-10-01T03:51:34.503Z,3.60
2022-10-01T03:52:34.217Z,3.70
2022-10-01T03:53:34.237Z,3.20
2022-10-01T03:54:34.224Z,4.80
2022-10-01T03:55:34.215Z,5.00
2022-10-01T03:56:34.197Z,2.90
2022-10-01T03:57:34.221Z,9.30
2022-10-01T03:58:34.155Z,3.10
2022-10-01T03:59:34.176Z,3.60
2022-10-01T04:00:34.506Z,5.20
2022-10-01T04:01:34.447Z,2.80
2022-10-01T04:02:34.226Z,2.60
2022-10-01T04:03:34.113Z,2.90
2022-10-01T04:04:34.093Z,4.30
2022-10-01T04:05:34.794Z,2.60
2022-10-01T04:06:34.824Z,2.40
2022-10-01T04:07:34.066Z,5.10
2022-10-01T04:08:34.053Z,3.60
2022-10-01T04:09:34.025Z,4.50
2022-10-01T04:10:34.827Z,4.40
2022-10-01T04:11:35.013Z,3.70
2022-10-01T04:12:34.013Z,5.00
2022-10-01T04:13:33.985Z,5.20
2022-10-01T04:14:33.983Z,3.00
2022-10-01T04:15:34.723Z,4.20
2022-10-01T04:16:34.879Z,2.70
2022-10-01T04:17:33.962Z,2.90
2022-10-01T04:18:33.953Z,4.20
2022-10-01T04:19:33.924Z,4.90
2022-10-01T04:20:33.923Z,5.90
2022-10-01T04:21:34.219Z,2.90
2022-10-01T04:22:33.903Z,3.50
2022-10-01T04:23:33.864Z,7.30
2022-10-01T04:24:33.955Z,4.80
2022-10-01T04:25:33.854Z,5.20
2022-10-01T04:26:33.853Z,5.50
2022-10-01T04:27:33.833Z,2.50
2022-10-01T04:28:33.974Z,5.80
2022-10-01T04:29:36.815Z,2.50
2022-10-01T04:30:34.814Z,3.90
2022-10-01T04:31:34.061Z,3.00
2022-10-01T04:32:33.794Z,3.30
2022-10-01T04:33:33.823Z,3.60
2022-10-01T04:34:33.766Z,4.90
2022-10-01T04:35:33.742Z,4.30
2022-10-01T04:36:33.769Z,3.60
2022-10-01T04:37:34.533Z,3.90
2022-10-01T04:38:33.753Z,2.90
2022-10-01T04:39:34.472Z,2.50
2022-10-01T04:40:33.718Z,3.60
2022-10-01T04:41:34.930Z,2.20
2022-10-01T04:42:33.775Z,3.50
2022-10-01T04:43:33.773Z,3.20
2022-10-01T04:44:34.399Z,3.00
2022-10-01T04:45:34.402Z,3.20
2022-10-01T04:46:33.721Z,4.00
2022-10-01T04:47:37.365Z,2.20
2022-10-01T04:48:33.629Z,3.40
2022-10-01T04:49:34.531Z,3.60
2022-10-01T04:50:34.316Z,3.60
2022-10-01T04:51:33.791Z,2.60
2022-10-01T04:52:33.732Z,5.00
2022-10-01T04:53:33.531Z,3.40
2022-10-01T04:54:34.313Z,3.90
2022-10-01T04:55:34.342Z,4.00
2022-10-01T04:56:34.257Z,3.20
2022-10-01T04:57:33.513Z,4.40
2022-10-01T04:58:33.514Z,3.80
2022-10-01T04:59:33.461Z,2.90
2022-10-01T05:00:34.077Z,5.40
2022-10-01T05:01:33.786Z,3.30
2022-10-01T05:02:33.509Z,3.70
2022-10-01T05:03:33.431Z,3.50
2022-10-01T05:04:33.421Z,4.40
2022-10-01T05:05:33.402Z,4.20
2022-10-01T05:06:33.403Z,3.00
2022-10-01T05:07:33.374Z,4.80
2022-10-01T05:08:33.376Z,2.20
2022-10-01T05:09:33.354Z,4.30
2022-10-01T05:10:33.540Z,3.10
2022-10-01T05:11:33.610Z,2.70
2022-10-01T05:12:33.332Z,3.20
2022-10-01T05:13:33.320Z,3.80
2022-10-01T05:14:33.303Z,2.40
2022-10-01T05:15:33.781Z,2.70
2022-10-01T05:16:33.378Z,2.00
2022-10-01T05:17:34.152Z,3.50
2022-10-01T05:18:34.084Z,3.60
2022-10-01T05:19:33.252Z,2.50
2022-10-01T05:20:33.258Z,2.60
2022-10-01T05:21:33.482Z,2.00
2022-10-01T05:22:33.224Z,3.20
2022-10-01T05:23:33.195Z,2.30
2022-10-01T05:24:33.200Z,1.50
2022-10-01T05:25:33.180Z,2.10
2022-10-01T05:26:33.199Z,1.40
2022-10-01T05:27:33.161Z,2.30
2022-10-01T05:28:34.145Z,2.20
2022-10-01T05:29:33.132Z,1.60
2022-10-01T05:30:33.954Z,2.10
2022-10-01T05:31:33.522Z,3.80
2022-10-01T05:32:33.111Z,1.70
2022-10-01T05:33:33.083Z,1.20
2022-10-01T05:34:33.792Z,1.10
2022-10-01T05:35:33.065Z,2.50
2022-10-01T05:36:33.061Z,2.10
2022-10-01T05:37:33.110Z,1.30
2022-10-01T05:38:33.060Z,2.00
2022-10-01T05:39:33.022Z,1.20
2022-10-01T05:40:33.190Z,1.90
2022-10-01T05:41:33.325Z,2.60
2022-10-01T05:42:32.990Z,2.40
2022-10-01T05:43:32.968Z,1.80
2022-10-01T05:44:32.970Z,2.20
2022-10-01T05:45:33.022Z,1.90
2022-10-01T05:46:33.185Z,2.00
2022-10-01T05:47:32.927Z,1.60
2022-10-01T05:48:32.939Z,2.10
2022-10-01T05:49:32.912Z,1.40
2022-10-01T05:50:32.993Z,1.20
2022-10-01T05:51:33.125Z,1.10
2022-10-01T05:52:32.880Z,1.60
2022-10-01T05:53:32.859Z,1.20
2022-10-01T05:54:32.859Z,1.00
2022-10-01T05:55:33.571Z,1.50
2022-10-01T05:56:32.911Z,1.20
2022-10-01T05:57:32.810Z,1.00
2022-10-01T05:58:33.541Z,1.90
2022-10-01T05:59:32.850Z,1.70
2022-10-01T06:00:32.799Z,1.00
2022-10-01T06:01:33.104Z,1.30
2022-10-01T06:02:32.915Z,1.80
2022-10-01T06:03:32.759Z,1.90
2022-10-01T06:04:34.814Z,2.10
2022-10-01T06:05:33.720Z,1.20
2022-10-01T06:06:32.739Z,1.00
2022-10-01T06:07:32.702Z,1.30
2022-10-01T06:08:32.709Z,1.60
2022-10-01T06:09:32.691Z,1.80
2022-10-01T06:10:32.680Z,1.80
2022-10-01T06:11:32.984Z,2.10
2022-10-01T06:12:32.669Z,1.40
2022-10-01T06:13:32.630Z,1.80
2022-10-01T06:14:32.658Z,2.50
2022-10-01T06:15:32.619Z,0.80
2022-10-01T06:16:32.666Z,1.00
2022-10-01T06:17:32.617Z,1.50
2022-10-01T06:18:33.413Z,1.40
2022-10-01T06:19:33.323Z,1.50
2022-10-01T06:20:33.394Z,1.20
2022-10-01T06:21:32.832Z,0.60
2022-10-01T06:22:32.536Z,1.90
2022-10-01T06:23:32.809Z,2.00
2022-10-01T06:24:32.524Z,0.90
2022-10-01T06:25:32.489Z,0.70
2022-10-01T06:26:32.528Z,1.30
2022-10-01T06:27:32.470Z,0.50
2022-10-01T06:28:32.546Z,2.30
2022-10-01T06:29:32.457Z,0.90
2022-10-01T06:30:32.462Z,0.70
2022-10-01T06:31:32.877Z,1.80
2022-10-01T06:32:34.891Z,0.90
2022-10-01T06:33:32.408Z,2.80
2022-10-01T06:34:32.406Z,1.40
2022-10-01T06:35:32.378Z,2.30
2022-10-01T06:36:32.385Z,2.80
2022-10-01T06:37:32.348Z,1.30
2022-10-01T06:38:32.371Z,2.00
2022-10-01T06:39:33.071Z,2.00
2022-10-01T06:40:33.098Z,1.10
2022-10-01T06:41:32.701Z,1.40
2022-10-01T06:42:32.307Z,1.90
2022-10-01T06:43:32.309Z,1.50
2022-10-01T06:44:32.297Z,2.60
2022-10-01T06:45:32.383Z,2.60
2022-10-01T06:46:32.268Z,1.20
2022-10-01T06:47:32.258Z,1.70
2022-10-01T06:48:32.261Z,0.70
2022-10-01T06:49:32.230Z,1.20
2022-10-01T06:50:32.229Z,2.40
2022-10-01T06:51:32.481Z,2.10
2022-10-01T06:52:32.209Z,0.70
2022-10-01T06:53:32.187Z,1.70
2022-10-01T06:54:32.176Z,1.80
2022-10-01T06:55:32.147Z,1.30
2022-10-01T06:56:32.968Z,0.60
2022-10-01T06:57:32.176Z,0.70
2022-10-01T06:58:32.136Z,1.40
2022-10-01T06:59:32.947Z,2.40
2022-10-01T07:00:32.126Z,1.60
2022-10-01T07:01:32.960Z,1.30
2022-10-01T07:02:32.169Z,0.70
2022-10-01T07:03:32.066Z,1.60
2022-10-01T07:04:32.067Z,1.40
2022-10-01T07:05:32.054Z,1.50
2022-10-01T07:06:32.057Z,1.80
2022-10-01T07:07:32.015Z,1.10
2022-10-01T07:08:32.027Z,1.90
2022-10-01T07:09:31.987Z,0.90
2022-10-01T07:10:31.994Z,2.10
2022-10-01T07:11:32.250Z,2.00
2022-10-01T07:12:31.975Z,1.00
2022-10-01T07:13:31.946Z,1.00
2022-10-01T07:14:31.955Z,1.60
2022-10-01T07:15:31.916Z,0.90
2022-10-01T07:16:31.978Z,0.80
2022-10-01T07:17:31.906Z,0.50
2022-10-01T07:18:31.917Z,3.00
2022-10-01T07:19:31.886Z,1.20
2022-10-01T07:20:32.836Z,0.60
2022-10-01T07:21:33.090Z,0.70
2022-10-01T07:22:31.918Z,0.70
2022-10-01T07:23:31.846Z,1.20
2022-10-01T07:24:31.838Z,1.50
2022-10-01T07:25:31.827Z,1.10
2022-10-01T07:26:31.854Z,0.90
2022-10-01T07:27:31.824Z,0.80
2022-10-01T07:28:32.578Z,0.50
2022-10-01T07:29:32.489Z,0.70
2022-10-01T07:30:35.456Z,0.70
2022-10-01T07:31:32.198Z,0.80
2022-10-01T07:32:31.734Z,0.90
2022-10-01T07:33:31.735Z,2.10
2022-10-01T07:34:31.735Z,0.40
2022-10-01T07:35:31.725Z,0.90
2022-10-01T07:36:31.705Z,1.50
2022-10-01T07:37:31.665Z,0.60
2022-10-01T07:38:31.675Z,1.10
2022-10-01T07:39:31.647Z,0.90
2022-10-01T07:40:32.327Z,1.00
2022-10-01T07:41:32.242Z,0.90
2022-10-01T07:42:31.646Z,1.10
2022-10-01T07:43:31.603Z,1.00
2022-10-01T07:44:31.605Z,0.80
2022-10-01T07:45:31.632Z,0.90
2022-10-01T07:46:34.739Z,1.30
2022-10-01T07:47:31.568Z,0.90
2022-10-01T07:48:31.555Z,1.20
2022-10-01T07:49:31.530Z,0.60
2022-10-01T07:50:31.535Z,0.70
2022-10-01T07:51:31.797Z,0.90
2022-10-01T07:52:31.510Z,1.70
2022-10-01T07:53:31.486Z,0.60
2022-10-01T07:54:31.484Z,0.40
2022-10-01T07:55:31.455Z,0.50
2022-10-01T07:56:31.462Z,0.90
2022-10-01T07:57:31.435Z,1.40
2022-10-01T07:58:31.434Z,1.20
2022-10-01T07:59:31.493Z,0.80
2022-10-01T08:00:31.427Z,0.70
2022-10-01T08:01:31.719Z,0.30
2022-10-01T08:02:31.747Z,0.40
2022-10-01T08:03:31.424Z,0.80
2022-10-01T08:04:31.364Z,0.60
2022-10-01T08:05:31.344Z,0.40
2022-10-01T08:06:31.345Z,0.70
2022-10-01T08:07:31.323Z,0.50
2022-10-01T08:08:31.314Z,0.80
2022-10-01T08:09:31.314Z,0.80
2022-10-01T08:10:31.294Z,0.50
2022-10-01T08:11:31.674Z,0.60
2022-10-01T08:12:31.294Z,1.10
2022-10-01T08:13:31.260Z,1.70
2022-10-01T08:14:31.253Z,0.60
2022-10-01T08:15:31.223Z,0.80
2022-10-01T08:16:31.295Z,0.60
2022-10-01T08:17:31.206Z,0.60
2022-10-01T08:18:31.223Z,1.20
2022-10-01T08:19:31.183Z,0.70
2022-10-01T08:20:31.194Z,1.30
2022-10-01T08:21:31.789Z,0.60
2022-10-01T08:22:32.005Z,1.20
2022-10-01T08:23:31.164Z,0.40
2022-10-01T08:24:31.123Z,0.50
2022-10-01T08:25:31.123Z,1.00
2022-10-01T08:26:31.103Z,1.00
2022-10-01T08:27:31.103Z,1.30
2022-10-01T08:28:31.174Z,0.90
2022-10-01T08:29:31.090Z,1.00
2022-10-01T08:30:31.060Z,1.10
2022-10-01T08:31:31.181Z,0.60
2022-10-01T08:32:31.023Z,0.40
2022-10-01T08:33:31.035Z,0.60
2022-10-01T08:34:31.043Z,0.60
2022-10-01T08:35:31.244Z,1.20
2022-10-01T08:36:30.983Z,0.70
2022-10-01T08:37:30.992Z,1.40
2022-10-01T08:38:30.965Z,0.90
2022-10-01T08:39:30.962Z,1.50
2022-10-01T08:40:31.033Z,0.90
2022-10-01T08:41:30.950Z,1.50
2022-10-01T08:42:30.930Z,0.70
2022-10-01T08:43:30.943Z,0.60
2022-10-01T08:44:30.893Z,0.80
2022-10-01T08:45:30.954Z,1.30
2022-10-01T08:46:30.874Z,0.90
2022-10-01T08:47:30.872Z,0.40
2022-10-01T08:48:30.872Z,0.40
2022-10-01T08:49:30.853Z,2.40
2022-10-01T08:50:30.864Z,0.40
2022-10-01T08:51:30.840Z,0.70
2022-10-01T08:52:30.802Z,0.80
2022-10-01T08:53:30.803Z,1.10
2022-10-01T08:54:30.782Z,1.50
2022-10-01T08:55:30.782Z,0.80
2022-10-01T08:56:30.754Z,1.10
2022-10-01T08:57:30.752Z,0.50
2022-10-01T08:58:30.740Z,1.30
2022-10-01T08:59:30.742Z,0.50
2022-10-01T09:00:30.726Z,0.60
2022-10-01T09:01:30.786Z,0.50
2022-10-01T09:02:31.494Z,0.90
2022-10-01T09:03:31.395Z,1.00
2022-10-01T09:04:30.738Z,0.60
2022-10-01T09:05:30.672Z,0.50
2022-10-01T09:06:30.632Z,2.00
2022-10-01T09:07:30.642Z,0.70
2022-10-01T09:08:30.613Z,1.50
2022-10-01T09:09:30.623Z,1.00
2022-10-01T09:10:30.592Z,0.70
2022-10-01T09:11:30.622Z,1.80
2022-10-01T09:12:30.573Z,0.60
2022-10-01T09:13:30.572Z,0.80
2022-10-01T09:14:30.542Z,0.60
2022-10-01T09:15:30.552Z,1.10
2022-10-01T09:16:30.580Z,0.30
2022-10-01T09:17:30.531Z,1.20
2022-10-01T09:18:30.501Z,0.40
2022-10-01T09:19:30.513Z,0.40
2022-10-01T09:20:30.481Z,1.60
2022-10-01T09:21:30.538Z,0.80
2022-10-01T09:22:30.461Z,0.30
2022-10-01T09:23:31.141Z,0.50
2022-10-01T09:24:30.443Z,1.40
2022-10-01T09:25:30.453Z,1.10
2022-10-01T09:26:30.425Z,0.70
2022-10-01T09:27:30.421Z,0.40
2022-10-01T09:28:30.426Z,0.70
2022-10-01T09:29:30.392Z,0.40
2022-10-01T09:30:30.417Z,0.80
2022-10-01T09:31:30.419Z,1.40
2022-10-01T09:32:30.341Z,0.70
2022-10-01T09:33:30.353Z,1.20
2022-10-01T09:34:30.311Z,0.70
2022-10-01T09:35:30.362Z,0.80
2022-10-01T09:36:30.303Z,0.40
2022-10-01T09:37:30.301Z,1.10
2022-10-01T09:38:30.271Z,0.50
2022-10-01T09:39:30.281Z,1.20
2022-10-01T09:40:30.254Z,0.50
2022-10-01T09:41:30.272Z,1.30
2022-10-01T09:42:30.230Z,0.60
2022-10-01T09:43:30.429Z,1.00
2022-10-01T09:44:30.213Z,0.60
2022-10-01T09:45:30.267Z,0.50
2022-10-01T09:46:30.191Z,0.50
2022-10-01T09:47:30.189Z,1.60
2022-10-01T09:48:30.161Z,0.80
2022-10-01T09:49:30.179Z,0.80
2022-10-01T09:50:30.154Z,1.30
2022-10-01T09:51:30.164Z,1.00
2022-10-01T09:52:30.140Z,0.70
2022-10-01T09:53:30.191Z,2.20
2022-10-01T09:54:30.127Z,1.00
2022-10-01T09:55:30.139Z,1.30
2022-10-01T09:56:30.080Z,1.00
2022-10-01T09:57:30.111Z,1.20
2022-10-01T09:58:30.052Z,0.80
2022-10-01T09:59:30.090Z,0.80
2022-10-01T10:00:30.031Z,1.80
2022-10-01T10:01:30.060Z,1.20
2022-10-01T10:02:30.164Z,1.00
2022-10-01T10:03:31.132Z,1.20
2022-10-01T10:04:30.912Z,0.70
2022-10-01T10:05:30.020Z,1.50
2022-10-01T10:06:30.059Z,1.00
2022-10-01T10:07:29.981Z,1.10
2022-10-01T10:08:29.948Z,0.60
2022-10-01T10:09:29.951Z,3.00
2022-10-01T10:10:29.923Z,1.10
2022-10-01T10:11:29.942Z,2.70
2022-10-01T10:12:29.919Z,0.90
2022-10-01T10:13:29.912Z,1.10
2022-10-01T10:14:29.962Z,1.20
2022-10-01T10:15:29.901Z,1.30
2022-10-01T10:16:29.851Z,2.00
2022-10-01T10:17:29.861Z,0.40
2022-10-01T10:18:29.831Z,2.50
2022-10-01T10:19:29.830Z,1.20
2022-10-01T10:20:29.930Z,0.90
2022-10-01T10:21:29.820Z,0.60
2022-10-01T10:22:29.780Z,1.60
2022-10-01T10:23:29.793Z,1.50
2022-10-01T10:24:29.783Z,1.20
2022-10-01T10:25:29.791Z,0.80
2022-10-01T10:26:29.762Z,2.40
2022-10-01T10:27:29.776Z,3.00
2022-10-01T10:28:29.818Z,1.10
2022-10-01T10:29:29.721Z,0.90
2022-10-01T10:30:29.714Z,0.70
2022-10-01T10:31:29.740Z,1.00
2022-10-01T10:32:29.674Z,1.00
2022-10-01T10:33:29.697Z,1.70
2022-10-01T10:34:29.652Z,1.40
2022-10-01T10:35:29.652Z,1.70
2022-10-01T10:36:29.794Z,0.60
2022-10-01T10:37:29.661Z,1.20
2022-10-01T10:38:29.631Z,0.90
2022-10-01T10:39:29.724Z,0.40
2022-10-01T10:40:29.982Z,1.70
2022-10-01T10:41:29.613Z,1.60
2022-10-01T10:42:29.592Z,1.10
2022-10-01T10:43:29.573Z,1.40
2022-10-01T10:44:29.570Z,1.70
2022-10-01T10:45:29.571Z,0.80
2022-10-01T10:46:29.581Z,1.20
2022-10-01T10:47:29.523Z,2.00
2022-10-01T10:48:29.502Z,2.20
2022-10-01T10:49:29.502Z,1.70
2022-10-01T10:50:29.565Z,1.70
2022-10-01T10:51:29.693Z,2.70
2022-10-01T10:52:29.451Z,0.60
2022-10-01T10:53:29.884Z,0.80
2022-10-01T10:54:29.443Z,1.20
2022-10-01T10:55:29.498Z,0.60
2022-10-01T10:56:29.461Z,0.90
2022-10-01T10:57:29.441Z,0.50
2022-10-01T10:58:29.399Z,1.30
2022-10-01T10:59:29.383Z,1.40
2022-10-01T11:00:30.150Z,2.00
2022-10-01T11:01:29.461Z,0.60
2022-10-01T11:02:29.369Z,0.70
2022-10-01T11:03:29.680Z,1.20
2022-10-01T11:04:29.341Z,2.90
2022-10-01T11:05:29.342Z,0.30
2022-10-01T11:06:30.081Z,1.20
2022-10-01T11:07:29.330Z,1.40
2022-10-01T11:08:29.271Z,1.10
2022-10-01T11:09:30.066Z,1.30
2022-10-01T11:10:29.613Z,1.60
2022-10-01T11:11:29.251Z,1.40
2022-10-01T11:12:29.231Z,1.40
2022-10-01T11:13:29.232Z,2.40
2022-10-01T11:14:29.202Z,1.30
2022-10-01T11:15:29.201Z,1.50
2022-10-01T11:16:29.181Z,0.90
2022-10-01T11:17:29.182Z,1.70
2022-10-01T11:18:29.181Z,0.70
2022-10-01T11:19:29.161Z,2.10
2022-10-01T11:20:29.900Z,1.20
2022-10-01T11:21:29.190Z,2.80
2022-10-01T11:22:29.105Z,2.10
2022-10-01T11:23:29.111Z,2.20
2022-10-01T11:24:29.231Z,3.20
2022-10-01T11:25:29.936Z,3.70
2022-10-01T11:26:29.093Z,3.30
2022-10-01T11:27:29.293Z,2.60
2022-10-01T11:28:29.099Z,2.80
2022-10-01T11:29:29.051Z,3.30
2022-10-01T11:30:29.023Z,3.10
2022-10-01T11:31:29.300Z,3.30
2022-10-01T11:32:29.001Z,3.00
2022-10-01T11:33:29.001Z,1.50
2022-10-01T11:34:28.980Z,3.50
2022-10-01T11:35:28.978Z,3.90
2022-10-01T11:36:28.952Z,3.00
2022-10-01T11:37:28.983Z,3.40
2022-10-01T11:38:28.932Z,3.00
2022-10-01T11:39:28.932Z,3.40
2022-10-01T11:40:29.634Z,2.30
2022-10-01T11:41:28.913Z,3.70
2022-10-01T11:42:28.913Z,2.60
2022-10-01T11:43:28.882Z,2.50
2022-10-01T11:44:28.861Z,3.40
2022-10-01T11:45:29.670Z,2.80
2022-10-01T11:46:28.888Z,3.60
2022-10-01T11:47:28.889Z,1.80
2022-10-01T11:48:28.822Z,1.50
2022-10-01T11:49:28.832Z,2.90
2022-10-01T11:50:28.907Z,3.00
2022-10-01T11:51:28.792Z,2.40
2022-10-01T11:52:28.763Z,2.10
2022-10-01T11:53:29.546Z,4.10
2022-10-01T11:54:28.882Z,2.40
2022-10-01T11:55:29.479Z,4.70
2022-10-01T11:56:28.780Z,2.70
2022-10-01T11:57:28.732Z,5.30
2022-10-01T11:58:28.753Z,2.60
2022-10-01T11:59:28.874Z,4.60
2022-10-01T12:00:28.682Z,2.80
2022-10-01T12:01:28.697Z,2.80
2022-10-01T12:02:28.703Z,2.90
2022-10-01T12:03:28.821Z,4.00
2022-10-01T12:04:28.693Z,3.20
2022-10-01T12:05:28.672Z,2.70
2022-10-01T12:06:34.234Z,5.90
2022-10-01T12:07:29.737Z,3.10
2022-10-01T12:08:28.591Z,3.20
2022-10-01T12:09:28.603Z,3.10
2022-10-01T12:10:28.554Z,1.80
2022-10-01T12:11:28.693Z,4.30
2022-10-01T12:12:28.581Z,4.70
2022-10-01T12:13:28.556Z,2.40
2022-10-01T12:14:28.623Z,2.50
2022-10-01T12:15:28.543Z,4.50
2022-10-01T12:16:28.577Z,2.80
2022-10-01T12:17:28.600Z,4.70
2022-10-01T12:18:28.602Z,3.10
2022-10-01T12:19:28.472Z,4.80
2022-10-01T12:20:28.454Z,4.80
2022-10-01T12:21:28.442Z,2.00
2022-10-01T12:22:28.424Z,2.70
2022-10-01T12:23:28.425Z,3.00
2022-10-01T12:24:28.391Z,3.60
2022-10-01T12:25:28.601Z,4.50
2022-10-01T12:26:28.474Z,4.70
2022-10-01T12:27:28.392Z,2.60
2022-10-01T12:28:28.452Z,3.40
2022-10-01T12:29:28.353Z,4.70
2022-10-01T12:30:28.442Z,5.10
2022-10-01T12:31:28.516Z,4.90
2022-10-01T12:32:28.312Z,4.90
2022-10-01T12:33:28.314Z,3.20
2022-10-01T12:34:28.330Z,3.80
2022-10-01T12:35:28.283Z,4.60
2022-10-01T12:36:28.270Z,5.70
2022-10-01T12:37:28.554Z,2.40
2022-10-01T12:38:28.263Z,3.70
2022-10-01T12:39:28.594Z,5.40
2022-10-01T12:40:28.637Z,7.60
2022-10-01T12:41:28.203Z,5.30
2022-10-01T12:42:28.250Z,5.20
2022-10-01T12:43:28.525Z,5.30
2022-10-01T12:44:28.243Z,4.40
2022-10-01T12:45:28.164Z,4.70
2022-10-01T12:46:28.807Z,5.20
2022-10-01T12:47:28.143Z,6.50
2022-10-01T12:48:28.997Z,3.30
2022-10-01T12:49:28.146Z,3.70
2022-10-01T12:50:28.157Z,3.60
2022-10-01T12:51:28.084Z,6.30
2022-10-01T12:52:28.092Z,4.90
2022-10-01T12:53:28.082Z,5.20
2022-10-01T12:54:28.083Z,5.40
2022-10-01T12:55:28.303Z,7.60
2022-10-01T12:56:28.045Z,4.10
2022-10-01T12:57:28.059Z,5.00
2022-10-01T12:58:28.026Z,5.20
2022-10-01T12:59:28.004Z,4.30
2022-10-01T13:00:28.006Z,4.50
2022-10-01T13:01:28.057Z,5.40
2022-10-01T13:02:28.039Z,5.00
2022-10-01T13:03:27.953Z,4.80
2022-10-01T13:04:27.967Z,5.60
2022-10-01T13:05:27.950Z,4.50
2022-10-01T13:06:27.941Z,4.10
2022-10-01T13:07:27.944Z,4.80
2022-10-01T13:08:27.934Z,4.60
2022-10-01T13:09:27.884Z,3.90
2022-10-01T13:10:27.914Z,3.40
2022-10-01T13:11:27.864Z,3.90
2022-10-01T13:12:27.874Z,4.40
2022-10-01T13:13:28.024Z,5.20
2022-10-01T13:14:27.907Z,4.70
2022-10-01T13:15:28.722Z,4.80
2022-10-01T13:16:27.888Z,5.80
2022-10-01T13:17:31.448Z,5.40
2022-10-01T13:18:28.851Z,3.50